createdAt,value
2018-12-12T00:00:53.272Z,100128.56
2018-12-12T00:03:20.815Z,100127.29
2018-12-12T00:05:48.339Z,100129.41
2018-12-12T00:08:15.884Z,100121.80
2018-12-12T00:10:43.422Z,100117.45
2018-12-12T00:13:11.041Z,100113.57
2018-12-12T00:15:38.587Z,100124.72
2018-12-12T00:18:06.240Z,100121.78
2018-12-12T00:20:33.798Z,100122.18
2018-12-12T00:23:01.362Z,100113.61
2018-12-12T00:25:28.958Z,100120.41
2018-12-12T00:27:56.529Z,100129.11
2018-12-12T00:30:24.112Z,100120.52
2018-12-12T00:32:52.178Z,100112.88
2018-12-12T00:35:20.251Z,100109.44
2018-12-12T00:37:49.735Z,100098.30
2018-12-12T00:40:19.750Z,100094.00
2018-12-12T00:42:47.861Z,100094.87
2018-12-12T00:45:15.943Z,100104.36
2018-12-12T00:47:45.136Z,100106.95
2018-12-12T00:50:17.043Z,100108.23
2018-12-12T00:52:45.340Z,100099.16
2018-12-12T00:55:13.139Z,100083.80
2018-12-12T00:57:41.413Z,100095.36
2018-12-12T01:00:09.936Z,100099.72
2018-12-12T01:02:38.264Z,100103.97
2018-12-12T01:05:05.954Z,100100.89
2018-12-12T01:07:33.532Z,100109.08
2018-12-12T01:10:01.100Z,100104.82
2018-12-12T01:12:28.668Z,100101.84
2018-12-12T01:14:56.272Z,100109.13
2018-12-12T01:17:23.892Z,100103.53
2018-12-12T01:19:51.482Z,100104.81
2018-12-12T01:22:19.056Z,100099.22
2018-12-12T01:24:46.705Z,100095.39
2018-12-12T01:27:14.246Z,100101.84
2018-12-12T01:29:41.817Z,100101.85
2018-12-12T01:32:09.343Z,100105.31
2018-12-12T01:34:36.928Z,100106.16
2018-12-12T01:37:04.696Z,100111.30
2018-12-12T01:39:32.661Z,100107.89
2018-12-12T01:42:00.221Z,100111.75
2018-12-12T01:44:27.841Z,100107.45
2018-12-12T01:46:55.400Z,100110.42
2018-12-12T01:49:22.980Z,100111.31
2018-12-12T01:51:50.572Z,100108.28
2018-12-12T01:54:18.198Z,100113.44
2018-12-12T01:56:45.748Z,100113.45
2018-12-12T01:59:13.326Z,100109.58
2018-12-12T02:01:40.843Z,100109.58
2018-12-12T02:04:08.457Z,100109.17
2018-12-12T02:06:36.066Z,100109.14
2018-12-12T02:09:04.754Z,100111.72
2018-12-12T02:11:32.299Z,100111.27
2018-12-12T02:13:59.849Z,100106.56
2018-12-12T02:16:27.426Z,100106.55
2018-12-12T02:18:55.188Z,100109.58
2018-12-12T02:21:22.806Z,100113.44
2018-12-12T02:23:50.379Z,100104.41
2018-12-12T02:26:17.950Z,100113.00
2018-12-12T02:28:45.518Z,100119.00
2018-12-12T02:31:13.207Z,100119.88
2018-12-12T02:33:40.788Z,100115.13
2018-12-12T02:36:08.355Z,100118.15
2018-12-12T02:38:35.916Z,100113.00
2018-12-12T02:41:03.495Z,100118.10
2018-12-12T02:43:31.054Z,100110.81
2018-12-12T02:45:58.639Z,100112.94
2018-12-12T02:48:26.253Z,100107.39
2018-12-12T02:50:53.834Z,100115.98
2018-12-12T02:53:21.423Z,100108.28
2018-12-12T02:55:49.076Z,100107.45
2018-12-12T02:58:16.622Z,100119.92
2018-12-12T03:00:44.169Z,100118.63
2018-12-12T03:03:11.713Z,100115.62
2018-12-12T03:05:39.288Z,100120.80
2018-12-12T03:08:06.913Z,100117.34
2018-12-12T03:10:34.497Z,100119.50
2018-12-12T03:13:02.060Z,100119.08
2018-12-12T03:15:29.682Z,100116.51
2018-12-12T03:17:57.210Z,100112.19
2018-12-12T03:20:24.882Z,100115.64
2018-12-12T03:22:52.494Z,100109.64
2018-12-12T03:25:20.059Z,100100.59
2018-12-12T03:27:47.666Z,100104.46
2018-12-12T03:30:15.213Z,100103.17
2018-12-12T03:32:42.773Z,100095.91
2018-12-12T03:35:10.331Z,100096.76
2018-12-12T03:37:37.910Z,100110.92
2018-12-12T03:40:05.981Z,100110.06
2018-12-12T03:42:34.008Z,100102.32
2018-12-12T03:45:01.566Z,100105.33
2018-12-12T03:47:29.160Z,100101.03
2018-12-12T03:49:56.701Z,100110.05
2018-12-12T03:52:24.288Z,100107.45
2018-12-12T03:54:51.837Z,100113.48
2018-12-12T03:57:19.396Z,100110.46
2018-12-12T03:59:46.936Z,100112.16
2018-12-12T04:02:14.589Z,100106.59
2018-12-12T04:04:42.153Z,100102.76
2018-12-12T04:07:09.736Z,100102.77
2018-12-12T04:09:37.279Z,100109.20
2018-12-12T04:12:04.852Z,100111.34
2018-12-12T04:14:32.381Z,100106.59
2018-12-12T04:17:00.088Z,100099.75
2018-12-12T04:19:27.641Z,100098.45
2018-12-12T04:21:55.216Z,100097.14
2018-12-12T04:24:24.807Z,100092.02
2018-12-12T04:26:52.418Z,100087.74
2018-12-12T04:29:19.963Z,100090.28
2018-12-12T04:31:47.566Z,100093.30
2018-12-12T04:34:15.191Z,100097.61
2018-12-12T04:36:42.883Z,100096.29
2018-12-12T04:39:10.501Z,100094.11
2018-12-12T04:41:38.168Z,100100.59
2018-12-12T04:44:05.788Z,100094.56
2018-12-12T04:46:33.377Z,100099.27
2018-12-12T04:49:01.029Z,100088.97
2018-12-12T04:51:28.556Z,100097.58
2018-12-12T04:53:56.565Z,100092.87
2018-12-12T04:56:24.159Z,100094.59
2018-12-12T04:58:52.564Z,100089.88
2018-12-12T05:01:20.242Z,100085.14
2018-12-12T05:03:48.326Z,100088.17
2018-12-12T05:06:16.024Z,100089.44
2018-12-12T05:08:43.618Z,100094.59
2018-12-12T05:11:11.334Z,100100.16
2018-12-12T05:13:38.971Z,100100.63
2018-12-12T05:16:06.531Z,100100.19
2018-12-12T05:18:34.227Z,100100.16
2018-12-12T05:21:01.800Z,100100.59
2018-12-12T05:23:29.411Z,100106.16
2018-12-12T05:25:56.983Z,100101.03
2018-12-12T05:28:24.535Z,100105.33
2018-12-12T05:30:52.453Z,100109.62
2018-12-12T05:33:20.056Z,100104.91
2018-12-12T05:35:47.564Z,100104.49
2018-12-12T05:38:19.274Z,100109.22
2018-12-12T05:40:46.860Z,100111.77
2018-12-12T05:43:14.483Z,100118.22
2018-12-12T05:45:42.287Z,100107.50
2018-12-12T05:48:09.821Z,100106.62
2018-12-12T05:50:37.341Z,100107.03
2018-12-12T05:53:04.988Z,100107.06
2018-12-12T05:55:32.543Z,100107.47
2018-12-12T05:58:00.066Z,100099.73
2018-12-12T06:00:27.610Z,100102.34
2018-12-12T06:02:55.124Z,100098.90
2018-12-12T06:05:22.671Z,100100.59
2018-12-12T06:07:50.290Z,100098.05
2018-12-12T06:10:17.847Z,100105.34
2018-12-12T06:12:45.648Z,100096.29
2018-12-12T06:15:13.206Z,100099.77
2018-12-12T06:17:40.721Z,100101.47
2018-12-12T06:20:08.468Z,100105.34
2018-12-12T06:22:37.771Z,100108.34
2018-12-12T06:25:05.829Z,100113.91
2018-12-12T06:27:33.378Z,100107.91
2018-12-12T06:30:00.920Z,100113.47
2018-12-12T06:32:29.809Z,100107.47
2018-12-12T06:34:57.378Z,100111.78
2018-12-12T06:37:24.879Z,100115.17
2018-12-12T06:39:52.423Z,100118.63
2018-12-12T06:42:19.924Z,100127.66
2018-12-12T06:44:47.476Z,100127.23
2018-12-12T06:47:15.325Z,100126.78
2018-12-12T06:49:42.863Z,100131.53
2018-12-12T06:52:10.387Z,100133.25
2018-12-12T06:54:37.920Z,100140.53
2018-12-12T06:57:05.430Z,100136.69
2018-12-12T06:59:32.969Z,100135.81
2018-12-12T07:02:00.679Z,100136.68
2018-12-12T07:04:28.210Z,100129.81
2018-12-12T07:06:56.620Z,100136.67
2018-12-12T07:09:24.180Z,100138.80
2018-12-12T07:11:51.693Z,100134.52
2018-12-12T07:14:19.198Z,100143.51
2018-12-12T07:16:47.766Z,100143.07
2018-12-12T07:19:15.272Z,100140.89
2018-12-12T07:21:42.809Z,100141.80
2018-12-12T07:24:10.314Z,100140.52
2018-12-12T07:26:37.875Z,100143.97
2018-12-12T07:29:05.400Z,100140.08
2018-12-12T07:31:32.941Z,100145.25
2018-12-12T07:34:01.359Z,100147.26
2018-12-12T07:36:29.132Z,100124.11
2018-12-12T07:38:56.646Z,100152.73
2018-12-12T07:41:24.668Z,100152.30
2018-12-12T07:43:52.190Z,100152.16
2018-12-12T07:46:20.907Z,100150.09
2018-12-12T07:48:48.410Z,100147.89
2018-12-12T07:51:15.950Z,100155.22
2018-12-12T07:53:43.464Z,100160.70
2018-12-12T07:56:10.995Z,100151.30
2018-12-12T07:58:38.492Z,100155.22
2018-12-12T08:01:06.031Z,100155.70
2018-12-12T08:03:33.539Z,100154.86
2018-12-12T08:06:01.075Z,100155.31
2018-12-12T08:08:28.585Z,100153.16
2018-12-12T08:10:56.129Z,100152.71
2018-12-12T08:13:23.651Z,100155.30
2018-12-12T08:15:51.192Z,100156.67
2018-12-12T08:18:18.704Z,100157.50
2018-12-12T08:20:46.260Z,100158.74
2018-12-12T08:23:14.165Z,100158.82
2018-12-12T08:25:41.891Z,100162.19
2018-12-12T08:28:09.420Z,100159.70
2018-12-12T08:30:37.010Z,100159.25
2018-12-12T08:33:10.878Z,100159.72
2018-12-12T08:35:34.067Z,100161.47
2018-12-12T08:38:01.602Z,100166.16
2018-12-12T08:40:29.219Z,100158.09
2018-12-12T08:42:56.727Z,100157.65
2018-12-12T08:45:24.251Z,100154.66
2018-12-12T08:47:51.813Z,100160.24
2018-12-12T08:50:19.494Z,100154.64
2018-12-12T08:52:47.032Z,100151.64
2018-12-12T08:55:17.664Z,100160.67
2018-12-12T08:57:44.106Z,100160.65
2018-12-12T09:00:11.610Z,100155.98
2018-12-12T09:02:39.149Z,100162.00
2018-12-12T09:05:06.658Z,100154.71
2018-12-12T09:07:34.206Z,100156.84
2018-12-12T09:10:01.731Z,100156.84
2018-12-12T09:12:29.278Z,100156.42
2018-12-12T09:14:57.344Z,100160.27
2018-12-12T09:17:24.901Z,100160.72
2018-12-12T09:19:52.412Z,100154.28
2018-12-12T09:22:19.948Z,100158.13
2018-12-12T09:24:47.455Z,100157.70
2018-12-12T09:27:14.985Z,100159.84
2018-12-12T09:29:42.486Z,100157.72
2018-12-12T09:32:10.032Z,100155.15
2018-12-12T09:34:37.542Z,100154.26
2018-12-12T09:37:05.090Z,100150.83
2018-12-12T09:39:32.600Z,100161.59
2018-12-12T09:42:00.126Z,100150.84
2018-12-12T09:44:27.730Z,100152.12
2018-12-12T09:46:55.270Z,100145.27
2018-12-12T09:49:22.785Z,100145.68
2018-12-12T09:51:50.314Z,100148.70
2018-12-12T09:54:17.826Z,100151.19
2018-12-12T09:56:45.378Z,100152.98
2018-12-12T09:59:12.890Z,100147.39
2018-12-12T10:01:40.402Z,100140.51
2018-12-12T10:04:07.947Z,100143.09
2018-12-12T10:06:35.451Z,100142.67
2018-12-12T10:09:03.387Z,100136.64
2018-12-12T10:11:30.901Z,100141.83
2018-12-12T10:13:58.435Z,100133.22
2018-12-12T10:16:25.954Z,100134.91
2018-12-12T10:18:53.494Z,100138.78
2018-12-12T10:21:21.007Z,100131.05
2018-12-12T10:23:48.545Z,100134.41
2018-12-12T10:26:16.063Z,100138.28
2018-12-12T10:28:44.221Z,100140.80
2018-12-12T10:31:12.122Z,100138.67
2018-12-12T10:33:39.733Z,100133.17
2018-12-12T10:36:07.245Z,100127.12
2018-12-12T10:38:34.801Z,100126.27
2018-12-12T10:41:02.310Z,100124.54
2018-12-12T10:43:29.853Z,100127.06
2018-12-12T10:45:57.365Z,100118.42
2018-12-12T10:48:24.911Z,100124.48
2018-12-12T10:50:52.422Z,100120.59
2018-12-12T10:53:19.959Z,100115.37
2018-12-12T10:55:47.464Z,100110.67
2018-12-12T10:58:15.012Z,100104.22
2018-12-12T11:00:44.521Z,100107.23
2018-12-12T11:03:17.663Z,100105.52
2018-12-12T11:05:45.227Z,100106.71
2018-12-12T11:08:12.808Z,100098.45
2018-12-12T11:10:40.808Z,100095.75
2018-12-12T11:13:08.339Z,100085.89
2018-12-12T11:15:35.844Z,100086.64
2018-12-12T11:18:03.388Z,100081.40
2018-12-12T11:20:30.905Z,100078.76
2018-12-12T11:22:58.444Z,100068.73
2018-12-12T11:25:25.961Z,100067.80
2018-12-12T11:27:53.487Z,100069.86
2018-12-12T11:30:20.983Z,100061.30
2018-12-12T11:32:48.518Z,100063.25
2018-12-12T11:35:16.026Z,100057.17
2018-12-12T11:37:43.533Z,100059.35
2018-12-12T11:40:11.098Z,100058.06
2018-12-12T11:42:38.687Z,100052.98
2018-12-12T11:45:06.308Z,100049.03
2018-12-12T11:47:33.833Z,100048.51
2018-12-12T11:50:01.370Z,100041.09
2018-12-12T11:52:28.876Z,100034.55
2018-12-12T11:54:56.404Z,100030.61
2018-12-12T11:57:24.423Z,100028.73
2018-12-12T11:59:51.954Z,100030.84
2018-12-12T12:02:19.464Z,100029.30
2018-12-12T12:04:47.005Z,100024.59
2018-12-12T12:07:14.507Z,100023.22
2018-12-12T12:09:42.039Z,100019.13
2018-12-12T12:12:09.538Z,100008.31
2018-12-12T12:14:37.079Z,100010.75
2018-12-12T12:17:04.702Z,100003.30
2018-12-12T12:19:32.263Z,100003.17
2018-12-12T12:21:59.854Z,100012.72
2018-12-12T12:24:27.384Z,100006.53
2018-12-12T12:26:54.888Z,99996.78
2018-12-12T12:29:22.507Z,99988.97
2018-12-12T12:31:50.095Z,99988.89
2018-12-12T12:34:17.747Z,99991.45
2018-12-12T12:36:46.046Z,99990.48
2018-12-12T12:39:13.585Z,99982.86
2018-12-12T12:41:41.092Z,99975.98
2018-12-12T12:44:08.626Z,99975.66
2018-12-12T12:46:36.126Z,99967.23
2018-12-12T12:49:03.731Z,99971.28
2018-12-12T12:51:31.331Z,99971.18
2018-12-12T12:54:00.212Z,99967.80
2018-12-12T12:56:27.739Z,99957.67
2018-12-12T12:58:55.272Z,99955.77
2018-12-12T13:01:22.781Z,99951.73
2018-12-12T13:03:50.437Z,99947.14
2018-12-12T13:06:19.369Z,99950.52
2018-12-12T13:08:47.018Z,99947.96
2018-12-12T13:11:14.965Z,99946.75
2018-12-12T13:13:43.108Z,99941.95
2018-12-12T13:16:10.766Z,99938.42
2018-12-12T13:18:38.353Z,99935.94
2018-12-12T13:21:05.998Z,99937.56
2018-12-12T13:23:33.520Z,99941.10
2018-12-12T13:26:01.119Z,99941.71
2018-12-12T13:28:28.867Z,99936.48
2018-12-12T13:30:56.553Z,99938.75
2018-12-12T13:33:24.124Z,99937.88
2018-12-12T13:35:51.773Z,99936.03
2018-12-12T13:38:20.912Z,99932.14
2018-12-12T13:40:48.574Z,99930.78
2018-12-12T13:43:16.162Z,99918.59
2018-12-12T13:45:47.722Z,99923.69
2018-12-12T13:48:15.411Z,99916.93
2018-12-12T13:50:42.979Z,99920.62
2018-12-12T13:53:13.959Z,99923.26
2018-12-12T13:55:43.245Z,99919.72
2018-12-12T13:58:10.867Z,99913.59
2018-12-12T14:00:39.181Z,99914.05
2018-12-12T14:03:07.047Z,99913.88
2018-12-12T14:05:34.711Z,99903.39
2018-12-12T14:08:02.276Z,99909.27
2018-12-12T14:10:30.084Z,99905.33
2018-12-12T14:12:57.656Z,99904.34
2018-12-12T14:15:25.264Z,99913.23
2018-12-12T14:17:52.803Z,99910.70
2018-12-12T14:20:20.411Z,99910.87
2018-12-12T14:22:48.036Z,99911.19
2018-12-12T14:25:15.669Z,99909.95
2018-12-12T14:27:43.481Z,99907.27
2018-12-12T14:30:11.062Z,99905.91
2018-12-12T14:32:38.615Z,99908.50
2018-12-12T14:35:06.216Z,99912.03
2018-12-12T14:37:33.968Z,99908.56
2018-12-12T14:40:01.592Z,99905.28
2018-12-12T14:42:29.140Z,99908.23
2018-12-12T14:44:56.751Z,99908.01
2018-12-12T14:47:24.257Z,99901.13
2018-12-12T14:49:51.904Z,99903.66
2018-12-12T14:52:21.044Z,99902.78
2018-12-12T14:54:48.611Z,99902.30
2018-12-12T14:57:16.282Z,99908.73
2018-12-12T14:59:43.897Z,99911.64
2018-12-12T15:02:12.002Z,99903.41
2018-12-12T15:04:39.612Z,99904.58
2018-12-12T15:07:07.268Z,99912.19
2018-12-12T15:09:35.020Z,99916.64
2018-12-12T15:12:02.830Z,99911.84
2018-12-12T15:14:30.399Z,99918.00
2018-12-12T15:17:01.268Z,99914.59
2018-12-12T15:19:30.973Z,99910.80
2018-12-12T15:21:58.724Z,99905.58
2018-12-12T15:24:26.309Z,99908.56
2018-12-12T15:26:53.859Z,99900.81
2018-12-12T15:29:21.420Z,99898.60
2018-12-12T15:31:48.978Z,99907.27
2018-12-12T15:34:16.739Z,99902.91
2018-12-12T15:36:45.272Z,99901.20
2018-12-12T15:39:13.035Z,99903.63
2018-12-12T15:41:40.742Z,99901.62
2018-12-12T15:44:08.357Z,99906.18
2018-12-12T15:46:36.980Z,99891.97
2018-12-12T15:49:04.628Z,99894.95
2018-12-12T15:51:32.211Z,99888.83
2018-12-12T15:53:59.759Z,99893.98
2018-12-12T15:56:27.471Z,99891.88
2018-12-12T15:58:55.107Z,99895.80
2018-12-12T16:01:22.890Z,99896.97
2018-12-12T16:03:50.420Z,99891.91
2018-12-12T16:06:18.012Z,99896.34
2018-12-12T16:08:45.591Z,99895.59
2018-12-12T16:11:19.541Z,99888.99
2018-12-12T16:13:47.214Z,99892.22
2018-12-12T16:16:28.693Z,99895.72
2018-12-12T16:19:01.120Z,99889.78
2018-12-12T16:21:31.955Z,99896.63
2018-12-12T16:24:06.779Z,99893.87
2018-12-12T16:26:37.067Z,99896.67
2018-12-12T16:29:07.800Z,99893.17
2018-12-12T16:31:39.483Z,99894.36
2018-12-12T16:34:09.332Z,99892.72
2018-12-12T16:36:38.184Z,99891.77
2018-12-12T16:39:08.010Z,99894.25
2018-12-12T16:41:39.610Z,99896.70
2018-12-12T16:44:09.518Z,99892.75
2018-12-12T16:46:40.110Z,99897.80
2018-12-12T16:49:10.919Z,99895.05
2018-12-12T16:51:43.432Z,99889.14
2018-12-12T16:54:11.519Z,99882.75
2018-12-12T16:56:39.881Z,99887.54
2018-12-12T16:59:07.473Z,99879.00
2018-12-12T17:01:36.482Z,99885.91
2018-12-12T17:04:04.682Z,99879.25
2018-12-12T17:06:32.876Z,99877.23
2018-12-12T17:09:00.898Z,99877.28
2018-12-12T17:11:29.139Z,99877.25
2018-12-12T17:14:00.282Z,99881.45
2018-12-12T17:16:28.362Z,99880.27
2018-12-12T17:18:56.323Z,99888.98
2018-12-12T17:21:31.047Z,99888.16
2018-12-12T17:23:59.032Z,99892.45
2018-12-12T17:26:28.596Z,99893.32
2018-12-12T17:28:56.718Z,99893.52
2018-12-12T17:31:25.650Z,99898.10
2018-12-12T17:33:53.259Z,99894.95
2018-12-12T17:36:20.879Z,99899.89
2018-12-12T17:38:48.497Z,99896.66
2018-12-12T17:41:17.866Z,99889.93
2018-12-12T17:43:46.450Z,99896.47
2018-12-12T17:46:14.193Z,99890.82
2018-12-12T17:48:41.856Z,99892.17
2018-12-12T17:51:09.469Z,99889.23
2018-12-12T17:53:37.086Z,99885.06
2018-12-12T17:56:04.723Z,99879.61
2018-12-12T17:58:32.330Z,99881.03
2018-12-12T18:01:00.348Z,99885.76
2018-12-12T18:03:28.099Z,99887.34
2018-12-12T18:05:55.868Z,99885.73
2018-12-12T18:08:23.642Z,99883.12
2018-12-12T18:10:55.138Z,99883.12
2018-12-12T18:13:26.582Z,99877.48
2018-12-12T18:15:55.501Z,99876.37
2018-12-12T18:18:23.501Z,99869.45
2018-12-12T18:20:54.975Z,99874.66
2018-12-12T18:23:24.592Z,99876.20
2018-12-12T18:25:55.887Z,99876.27
2018-12-12T18:28:25.292Z,99879.10
2018-12-12T18:33:29.209Z,99883.80
2018-12-12T18:35:57.409Z,99881.97
2018-12-12T18:38:26.630Z,99871.05
2018-12-12T18:40:54.459Z,99888.63
2018-12-12T18:43:22.213Z,99877.72
2018-12-12T18:45:50.425Z,99882.36
2018-12-12T18:48:18.272Z,99883.20
2018-12-12T18:50:46.179Z,99881.47
2018-12-12T18:53:14.127Z,99882.67
2018-12-12T18:55:41.865Z,99882.25
2018-12-12T18:58:09.656Z,99884.87
2018-12-12T19:00:37.650Z,99880.45
2018-12-12T19:03:05.693Z,99880.45
2018-12-12T19:05:37.095Z,99880.81
2018-12-12T19:08:04.814Z,99879.16
2018-12-12T19:10:33.576Z,99886.63
2018-12-12T19:13:03.849Z,99884.04
2018-12-12T19:15:31.601Z,99884.31
2018-12-12T19:17:59.331Z,99878.18
2018-12-12T19:20:28.899Z,99878.06
2018-12-12T19:22:57.746Z,99873.58
2018-12-12T19:25:25.721Z,99871.89
2018-12-12T19:27:53.224Z,99872.95
2018-12-12T19:30:20.772Z,99876.69
2018-12-12T19:32:48.271Z,99874.39
2018-12-12T19:35:15.809Z,99876.01
2018-12-12T19:37:43.792Z,99877.45
2018-12-12T19:40:12.050Z,99872.67
2018-12-12T19:42:40.093Z,99863.16
2018-12-12T19:45:08.768Z,99866.17
2018-12-12T19:47:36.648Z,99860.23
2018-12-12T19:50:05.678Z,99864.05
2018-12-12T19:52:33.241Z,99857.16
2018-12-12T19:55:01.014Z,99857.04
2018-12-12T19:57:30.680Z,99863.99
2018-12-12T19:59:58.424Z,99863.06
2018-12-12T20:02:26.288Z,99850.20
2018-12-12T20:04:54.569Z,99854.41
2018-12-12T20:07:22.150Z,99845.72
2018-12-12T20:09:49.968Z,99845.45
2018-12-12T20:12:17.649Z,99835.55
2018-12-12T20:14:46.048Z,99839.41
2018-12-12T20:17:13.763Z,99834.36
2018-12-12T20:19:41.347Z,99832.34
2018-12-12T20:22:08.940Z,99832.72
2018-12-12T20:24:36.728Z,99831.02
2018-12-12T20:27:04.429Z,99825.83
2018-12-12T20:29:32.004Z,99822.09
2018-12-12T20:31:59.679Z,99816.75
2018-12-12T20:34:27.189Z,99818.02
2018-12-12T20:36:55.615Z,99817.43
2018-12-12T20:39:23.459Z,99814.66
2018-12-12T20:41:50.995Z,99809.94
2018-12-12T20:44:18.498Z,99818.11
2018-12-12T20:46:46.025Z,99811.23
2018-12-12T20:49:13.522Z,99810.31
2018-12-12T20:51:41.168Z,99810.20
2018-12-12T20:54:08.672Z,99806.53
2018-12-12T20:56:36.198Z,99805.99
2018-12-12T20:59:07.590Z,99807.33
2018-12-12T21:01:36.902Z,99802.75
2018-12-12T21:04:04.648Z,99803.73
2018-12-12T21:06:32.237Z,99803.64
2018-12-12T21:09:00.055Z,99800.49
2018-12-12T21:11:27.731Z,99791.59
2018-12-12T21:13:55.375Z,99794.89
2018-12-12T21:16:23.148Z,99796.23
2018-12-12T21:18:50.755Z,99788.64
2018-12-12T21:21:18.348Z,99787.61
2018-12-12T21:23:45.962Z,99787.55
2018-12-12T21:26:13.914Z,99774.22
2018-12-12T21:28:41.480Z,99778.33
2018-12-12T21:31:09.047Z,99782.00
2018-12-12T21:33:36.625Z,99777.03
2018-12-12T21:36:04.748Z,99785.39
2018-12-12T21:38:32.318Z,99782.06
2018-12-12T21:40:59.870Z,99781.34
2018-12-12T21:43:27.442Z,99778.59
2018-12-12T21:45:55.068Z,99771.27
2018-12-12T21:48:22.687Z,99773.90
2018-12-12T21:50:50.244Z,99777.30
2018-12-12T21:53:17.914Z,99777.75
2018-12-12T21:55:45.474Z,99778.30
2018-12-12T21:58:13.053Z,99775.28
2018-12-12T22:00:40.583Z,99776.62
2018-12-12T22:03:08.137Z,99775.78
2018-12-12T22:05:35.677Z,99769.80
2018-12-12T22:08:04.425Z,99767.64
2018-12-12T22:10:31.949Z,99768.56
2018-12-12T22:12:59.538Z,99766.81
2018-12-12T22:15:27.093Z,99764.67
2018-12-12T22:17:54.662Z,99765.17
2018-12-12T22:20:22.191Z,99767.31
2018-12-12T22:22:49.758Z,99763.11
2018-12-12T22:25:17.337Z,99767.40
2018-12-12T22:27:44.977Z,99763.05
2018-12-12T22:30:12.542Z,99760.54
2018-12-12T22:32:40.101Z,99759.69
2018-12-12T22:35:07.682Z,99765.28
2018-12-12T22:37:35.265Z,99762.31
2018-12-12T22:40:02.823Z,99756.34
2018-12-12T22:42:30.399Z,99758.91
2018-12-12T22:44:57.960Z,99760.67
2018-12-12T22:47:26.063Z,99756.84
2018-12-12T22:49:56.021Z,99753.90
2018-12-12T22:52:23.976Z,99753.90
2018-12-12T22:54:51.556Z,99748.86
2018-12-12T22:57:19.112Z,99747.14
2018-12-12T22:59:46.629Z,99747.20
2018-12-12T23:02:14.203Z,99747.64
2018-12-12T23:04:44.544Z,99745.92
2018-12-12T23:07:12.893Z,99742.10
2018-12-12T23:12:32.836Z,99744.08
2018-12-12T23:15:05.432Z,99743.64
2018-12-12T23:17:36.445Z,99741.92
2018-12-12T23:20:11.117Z,99746.62
2018-12-12T23:22:39.588Z,99738.03
2018-12-12T23:25:07.887Z,99738.11
2018-12-12T23:27:36.219Z,99750.56
2018-12-12T23:32:57.317Z,99722.62
2018-12-12T23:35:26.998Z,99728.69
2018-12-12T23:37:55.865Z,99724.03
2018-12-12T23:40:24.081Z,99722.73
2018-12-12T23:42:51.684Z,99722.23
2018-12-12T23:45:19.400Z,99710.65
2018-12-12T23:47:46.956Z,99712.41
2018-12-12T23:50:14.520Z,99709.41
2018-12-12T23:52:46.823Z,99706.38
2018-12-12T23:55:19.749Z,99712.41
2018-12-12T23:57:47.462Z,99712.42
